sensor_id;sensor_type;location;lat;lon;timestamp;P1;durP1;ratioP1;P2;durP2;ratioP2
83096;SDS011;72968;49.460;11.004;2024-02-21T00:01:15;9.82;;;2.20;;
83096;SDS011;72968;49.460;11.004;2024-02-21T00:03:47;5.30;;;1.90;;
83096;SDS011;72968;49.460;11.004;2024-02-21T00:06:18;5.57;;;2.30;;
83096;SDS011;72968;49.460;11.004;2024-02-21T00:08:50;10.27;;;2.70;;
83096;SDS011;72968;49.460;11.004;2024-02-21T00:11:21;6.47;;;2.58;;
83096;SDS011;72968;49.460;11.004;2024-02-21T00:13:52;10.02;;;2.67;;
83096;SDS011;72968;49.460;11.004;2024-02-21T00:16:25;7.50;;;1.90;;
83096;SDS011;72968;49.460;11.004;2024-02-21T00:18:59;6.35;;;2.90;;
83096;SDS011;72968;49.460;11.004;2024-02-21T00:21:30;8.82;;;2.45;;
83096;SDS011;72968;49.460;11.004;2024-02-21T00:24:02;8.40;;;2.40;;
83096;SDS011;72968;49.460;11.004;2024-02-21T00:26:33;8.70;;;2.85;;
83096;SDS011;72968;49.460;11.004;2024-02-21T00:29:04;6.30;;;2.83;;
83096;SDS011;72968;49.460;11.004;2024-02-21T00:31:37;12.80;;;2.50;;
83096;SDS011;72968;49.460;11.004;2024-02-21T00:34:09;9.18;;;2.55;;
83096;SDS011;72968;49.460;11.004;2024-02-21T00:36:41;5.13;;;2.30;;
83096;SDS011;72968;49.460;11.004;2024-02-21T00:39:12;9.00;;;2.58;;
83096;SDS011;72968;49.460;11.004;2024-02-21T00:41:44;10.18;;;2.45;;
83096;SDS011;72968;49.460;11.004;2024-02-21T00:44:15;10.13;;;2.25;;
83096;SDS011;72968;49.460;11.004;2024-02-21T00:46:48;6.20;;;2.70;;
83096;SDS011;72968;49.460;11.004;2024-02-21T00:49:22;8.98;;;2.25;;
83096;SDS011;72968;49.460;11.004;2024-02-21T00:51:56;12.27;;;3.00;;
83096;SDS011;72968;49.460;11.004;2024-02-21T00:54:27;8.52;;;2.80;;
83096;SDS011;72968;49.460;11.004;2024-02-21T00:56:58;7.00;;;2.45;;
83096;SDS011;72968;49.460;11.004;2024-02-21T00:59:30;9.23;;;3.63;;
83096;SDS011;72968;49.460;11.004;2024-02-21T01:02:03;12.63;;;3.03;;
83096;SDS011;72968;49.460;11.004;2024-02-21T01:04:35;8.88;;;2.20;;
83096;SDS011;72968;49.460;11.004;2024-02-21T01:07:06;9.15;;;2.88;;
83096;SDS011;72968;49.460;11.004;2024-02-21T01:09:38;10.75;;;3.03;;
83096;SDS011;72968;49.460;11.004;2024-02-21T01:12:09;8.65;;;2.60;;
83096;SDS011;72968;49.460;11.004;2024-02-21T01:14:40;9.10;;;2.42;;
83096;SDS011;72968;49.460;11.004;2024-02-21T01:17:13;10.02;;;3.88;;
83096;SDS011;72968;49.460;11.004;2024-02-21T01:19:45;10.18;;;2.55;;
83096;SDS011;72968;49.460;11.004;2024-02-21T01:22:17;13.38;;;2.92;;
83096;SDS011;72968;49.460;11.004;2024-02-21T01:24:49;10.15;;;3.00;;
83096;SDS011;72968;49.460;11.004;2024-02-21T01:27:20;9.65;;;2.55;;
83096;SDS011;72968;49.460;11.004;2024-02-21T01:29:52;10.27;;;3.30;;
83096;SDS011;72968;49.460;11.004;2024-02-21T01:32:24;7.03;;;2.70;;
83096;SDS011;72968;49.460;11.004;2024-02-21T01:34:56;13.98;;;3.13;;
83096;SDS011;72968;49.460;11.004;2024-02-21T01:37:27;9.90;;;3.40;;
83096;SDS011;72968;49.460;11.004;2024-02-21T01:39:58;9.10;;;2.53;;
83096;SDS011;72968;49.460;11.004;2024-02-21T01:42:30;5.68;;;3.58;;
83096;SDS011;72968;49.460;11.004;2024-02-21T01:45:01;10.73;;;2.47;;
83096;SDS011;72968;49.460;11.004;2024-02-21T01:47:34;6.15;;;2.10;;
83096;SDS011;72968;49.460;11.004;2024-02-21T01:50:06;11.73;;;3.10;;
83096;SDS011;72968;49.460;11.004;2024-02-21T01:52:38;4.50;;;2.22;;
83096;SDS011;72968;49.460;11.004;2024-02-21T01:55:09;9.88;;;2.50;;
83096;SDS011;72968;49.460;11.004;2024-02-21T01:57:41;11.48;;;2.83;;
83096;SDS011;72968;49.460;11.004;2024-02-21T02:00:15;5.82;;;2.38;;
83096;SDS011;72968;49.460;11.004;2024-02-21T02:02:48;6.80;;;2.35;;
83096;SDS011;72968;49.460;11.004;2024-02-21T02:05:20;9.52;;;2.90;;
83096;SDS011;72968;49.460;11.004;2024-02-21T02:07:52;15.02;;;3.15;;
83096;SDS011;72968;49.460;11.004;2024-02-21T02:10:23;6.25;;;2.63;;
83096;SDS011;72968;49.460;11.004;2024-02-21T02:12:57;12.43;;;3.22;;
83096;SDS011;72968;49.460;11.004;2024-02-21T02:15:37;5.63;;;2.05;;
83096;SDS011;72968;49.460;11.004;2024-02-21T02:18:09;8.50;;;2.55;;
83096;SDS011;72968;49.460;11.004;2024-02-21T02:20:43;7.28;;;2.45;;
83096;SDS011;72968;49.460;11.004;2024-02-21T02:23:21;7.13;;;2.67;;
83096;SDS011;72968;49.460;11.004;2024-02-21T02:25:55;12.43;;;2.65;;
83096;SDS011;72968;49.460;11.004;2024-02-21T02:28:26;6.10;;;2.67;;
83096;SDS011;72968;49.460;11.004;2024-02-21T02:30:57;11.82;;;2.95;;
83096;SDS011;72968;49.460;11.004;2024-02-21T02:33:32;6.95;;;2.65;;
83096;SDS011;72968;49.460;11.004;2024-02-21T02:36:05;6.63;;;2.30;;
83096;SDS011;72968;49.460;11.004;2024-02-21T02:38:38;11.50;;;2.83;;
83096;SDS011;72968;49.460;11.004;2024-02-21T02:41:09;7.18;;;2.92;;
83096;SDS011;72968;49.460;11.004;2024-02-21T02:43:40;7.50;;;2.63;;
83096;SDS011;72968;49.460;11.004;2024-02-21T02:46:12;9.50;;;2.42;;
83096;SDS011;72968;49.460;11.004;2024-02-21T02:48:43;5.68;;;2.17;;
83096;SDS011;72968;49.460;11.004;2024-02-21T02:51:15;6.95;;;2.40;;
83096;SDS011;72968;49.460;11.004;2024-02-21T02:53:50;6.20;;;2.05;;
83096;SDS011;72968;49.460;11.004;2024-02-21T02:56:21;7.32;;;2.10;;
83096;SDS011;72968;49.460;11.004;2024-02-21T02:58:53;7.72;;;3.00;;
83096;SDS011;72968;49.460;11.004;2024-02-21T03:01:25;8.30;;;2.80;;
83096;SDS011;72968;49.460;11.004;2024-02-21T03:03:56;7.57;;;2.22;;
83096;SDS011;72968;49.460;11.004;2024-02-21T03:06:28;7.82;;;2.70;;
83096;SDS011;72968;49.460;11.004;2024-02-21T03:09:03;7.65;;;2.55;;
83096;SDS011;72968;49.460;11.004;2024-02-21T03:11:38;7.50;;;2.40;;
83096;SDS011;72968;49.460;11.004;2024-02-21T03:14:11;7.70;;;2.90;;
83096;SDS011;72968;49.460;11.004;2024-02-21T03:16:42;7.25;;;2.20;;
83096;SDS011;72968;49.460;11.004;2024-02-21T03:19:14;12.88;;;3.13;;
83096;SDS011;72968;49.460;11.004;2024-02-21T03:21:46;7.63;;;2.53;;
83096;SDS011;72968;49.460;11.004;2024-02-21T03:24:19;9.98;;;2.83;;
83096;SDS011;72968;49.460;11.004;2024-02-21T03:26:51;6.03;;;2.50;;
83096;SDS011;72968;49.460;11.004;2024-02-21T03:29:22;9.15;;;2.42;;
83096;SDS011;72968;49.460;11.004;2024-02-21T03:31:53;11.23;;;2.95;;
83096;SDS011;72968;49.460;11.004;2024-02-21T03:34:26;10.60;;;2.50;;
83096;SDS011;72968;49.460;11.004;2024-02-21T03:36:57;5.38;;;2.50;;
83096;SDS011;72968;49.460;11.004;2024-02-21T03:39:31;4.25;;;2.03;;
83096;SDS011;72968;49.460;11.004;2024-02-21T03:42:03;6.38;;;2.33;;
83096;SDS011;72968;49.460;11.004;2024-02-21T03:44:36;8.57;;;2.20;;
83096;SDS011;72968;49.460;11.004;2024-02-21T03:47:07;9.90;;;2.30;;
83096;SDS011;72968;49.460;11.004;2024-02-21T03:49:40;7.90;;;2.42;;
83096;SDS011;72968;49.460;11.004;2024-02-21T03:52:12;7.72;;;2.25;;
83096;SDS011;72968;49.460;11.004;2024-02-21T03:54:46;6.13;;;2.25;;
83096;SDS011;72968;49.460;11.004;2024-02-21T03:57:20;7.90;;;2.53;;
83096;SDS011;72968;49.460;11.004;2024-02-21T03:59:52;6.88;;;2.20;;
83096;SDS011;72968;49.460;11.004;2024-02-21T04:02:23;7.40;;;2.40;;
83096;SDS011;72968;49.460;11.004;2024-02-21T04:04:55;7.05;;;2.50;;
83096;SDS011;72968;49.460;11.004;2024-02-21T04:07:27;7.00;;;2.40;;
83096;SDS011;72968;49.460;11.004;2024-02-21T04:10:00;8.30;;;2.30;;
83096;SDS011;72968;49.460;11.004;2024-02-21T04:12:31;8.18;;;2.30;;
83096;SDS011;72968;49.460;11.004;2024-02-21T04:15:02;14.00;;;2.92;;
83096;SDS011;72968;49.460;11.004;2024-02-21T04:17:34;7.18;;;2.20;;
83096;SDS011;72968;49.460;11.004;2024-02-21T04:20:13;6.82;;;2.30;;
83096;SDS011;72968;49.460;11.004;2024-02-21T04:22:44;6.65;;;2.15;;
83096;SDS011;72968;49.460;11.004;2024-02-21T04:25:17;8.85;;;2.15;;
83096;SDS011;72968;49.460;11.004;2024-02-21T04:27:49;7.00;;;2.88;;
83096;SDS011;72968;49.460;11.004;2024-02-21T04:30:20;6.25;;;2.35;;
83096;SDS011;72968;49.460;11.004;2024-02-21T04:32:52;9.85;;;2.50;;
83096;SDS011;72968;49.460;11.004;2024-02-21T04:35:23;9.02;;;2.53;;
83096;SDS011;72968;49.460;11.004;2024-02-21T04:37:54;10.75;;;2.53;;
83096;SDS011;72968;49.460;11.004;2024-02-21T04:40:27;9.93;;;2.67;;
83096;SDS011;72968;49.460;11.004;2024-02-21T04:42:58;7.63;;;3.45;;
83096;SDS011;72968;49.460;11.004;2024-02-21T04:45:30;5.70;;;2.47;;
83096;SDS011;72968;49.460;11.004;2024-02-21T04:48:01;4.35;;;2.40;;
83096;SDS011;72968;49.460;11.004;2024-02-21T04:50:33;9.63;;;2.90;;
83096;SDS011;72968;49.460;11.004;2024-02-21T04:53:05;6.38;;;2.35;;
83096;SDS011;72968;49.460;11.004;2024-02-21T04:55:37;8.98;;;2.97;;
83096;SDS011;72968;49.460;11.004;2024-02-21T04:58:10;5.93;;;2.22;;
83096;SDS011;72968;49.460;11.004;2024-02-21T05:00:41;8.00;;;2.20;;
83096;SDS011;72968;49.460;11.004;2024-02-21T05:03:15;6.68;;;2.75;;
83096;SDS011;72968;49.460;11.004;2024-02-21T05:05:46;7.75;;;2.50;;
83096;SDS011;72968;49.460;11.004;2024-02-21T05:08:17;8.10;;;2.92;;
83096;SDS011;72968;49.460;11.004;2024-02-21T05:10:50;5.95;;;2.38;;
83096;SDS011;72968;49.460;11.004;2024-02-21T05:13:21;8.85;;;2.80;;
83096;SDS011;72968;49.460;11.004;2024-02-21T05:15:53;8.40;;;2.33;;
83096;SDS011;72968;49.460;11.004;2024-02-21T05:18:24;14.88;;;2.88;;
83096;SDS011;72968;49.460;11.004;2024-02-21T05:20:55;10.10;;;2.60;;
83096;SDS011;72968;49.460;11.004;2024-02-21T05:23:27;8.40;;;2.50;;
83096;SDS011;72968;49.460;11.004;2024-02-21T05:26:00;7.22;;;2.80;;
83096;SDS011;72968;49.460;11.004;2024-02-21T05:28:31;8.63;;;3.35;;
83096;SDS011;72968;49.460;11.004;2024-02-21T05:31:02;8.45;;;3.08;;
83096;SDS011;72968;49.460;11.004;2024-02-21T05:33:34;8.57;;;4.25;;
83096;SDS011;72968;49.460;11.004;2024-02-21T05:36:06;9.13;;;3.40;;
83096;SDS011;72968;49.460;11.004;2024-02-21T05:38:38;11.13;;;2.58;;
83096;SDS011;72968;49.460;11.004;2024-02-21T05:41:11;8.43;;;2.70;;
83096;SDS011;72968;49.460;11.004;2024-02-21T05:43:42;6.15;;;2.60;;
83096;SDS011;72968;49.460;11.004;2024-02-21T05:46:13;6.35;;;2.42;;
83096;SDS011;72968;49.460;11.004;2024-02-21T05:48:45;9.30;;;3.00;;
83096;SDS011;72968;49.460;11.004;2024-02-21T05:51:17;7.60;;;2.88;;
83096;SDS011;72968;49.460;11.004;2024-02-21T05:53:49;7.53;;;2.92;;
83096;SDS011;72968;49.460;11.004;2024-02-21T05:56:22;7.32;;;2.47;;
83096;SDS011;72968;49.460;11.004;2024-02-21T05:58:53;6.75;;;2.75;;
83096;SDS011;72968;49.460;11.004;2024-02-21T06:01:25;11.02;;;3.13;;
83096;SDS011;72968;49.460;11.004;2024-02-21T06:03:55;9.63;;;2.60;;
83096;SDS011;72968;49.460;11.004;2024-02-21T06:06:26;11.18;;;3.38;;
83096;SDS011;72968;49.460;11.004;2024-02-21T06:08:58;8.40;;;3.03;;
83096;SDS011;72968;49.460;11.004;2024-02-21T06:11:31;9.48;;;2.95;;
83096;SDS011;72968;49.460;11.004;2024-02-21T06:14:03;11.82;;;3.33;;
83096;SDS011;72968;49.460;11.004;2024-02-21T06:16:34;17.30;;;3.22;;
83096;SDS011;72968;49.460;11.004;2024-02-21T06:19:06;13.23;;;3.25;;
83096;SDS011;72968;49.460;11.004;2024-02-21T06:21:37;7.53;;;2.80;;
83096;SDS011;72968;49.460;11.004;2024-02-21T06:24:09;8.90;;;3.33;;
83096;SDS011;72968;49.460;11.004;2024-02-21T06:26:41;15.20;;;3.28;;
83096;SDS011;72968;49.460;11.004;2024-02-21T06:29:13;7.15;;;2.78;;
83096;SDS011;72968;49.460;11.004;2024-02-21T06:31:44;14.07;;;3.65;;
83096;SDS011;72968;49.460;11.004;2024-02-21T06:34:16;7.93;;;3.35;;
83096;SDS011;72968;49.460;11.004;2024-02-21T06:36:48;16.30;;;3.75;;
83096;SDS011;72968;49.460;11.004;2024-02-21T06:39:19;8.60;;;3.13;;
83096;SDS011;72968;49.460;11.004;2024-02-21T06:41:53;9.93;;;3.95;;
83096;SDS011;72968;49.460;11.004;2024-02-21T06:44:25;9.52;;;3.30;;
83096;SDS011;72968;49.460;11.004;2024-02-21T06:46:57;11.38;;;3.17;;
83096;SDS011;72968;49.460;11.004;2024-02-21T06:49:29;8.50;;;2.97;;
83096;SDS011;72968;49.460;11.004;2024-02-21T06:52:00;7.30;;;3.17;;
83096;SDS011;72968;49.460;11.004;2024-02-21T06:54:31;10.73;;;3.58;;
83096;SDS011;72968;49.460;11.004;2024-02-21T06:57:04;9.75;;;3.95;;
83096;SDS011;72968;49.460;11.004;2024-02-21T06:59:36;19.25;;;4.18;;
83096;SDS011;72968;49.460;11.004;2024-02-21T07:02:09;10.48;;;3.42;;
83096;SDS011;72968;49.460;11.004;2024-02-21T07:04:40;17.40;;;3.15;;
83096;SDS011;72968;49.460;11.004;2024-02-21T07:07:12;12.13;;;3.97;;
83096;SDS011;72968;49.460;11.004;2024-02-21T07:09:43;10.10;;;2.92;;
83096;SDS011;72968;49.460;11.004;2024-02-21T07:12:16;13.63;;;3.22;;
83096;SDS011;72968;49.460;11.004;2024-02-21T07:14:49;6.60;;;2.67;;
83096;SDS011;72968;49.460;11.004;2024-02-21T07:17:21;5.32;;;2.92;;
83096;SDS011;72968;49.460;11.004;2024-02-21T07:19:53;10.40;;;3.05;;
83096;SDS011;72968;49.460;11.004;2024-02-21T07:22:26;10.88;;;2.70;;
83096;SDS011;72968;49.460;11.004;2024-02-21T07:24:58;5.70;;;2.70;;
83096;SDS011;72968;49.460;11.004;2024-02-21T07:27:31;9.38;;;2.53;;
83096;SDS011;72968;49.460;11.004;2024-02-21T07:30:03;5.30;;;2.15;;
83096;SDS011;72968;49.460;11.004;2024-02-21T07:32:35;8.50;;;2.55;;
83096;SDS011;72968;49.460;11.004;2024-02-21T07:35:06;6.60;;;2.40;;
83096;SDS011;72968;49.460;11.004;2024-02-21T07:37:40;6.88;;;2.22;;
83096;SDS011;72968;49.460;11.004;2024-02-21T07:40:12;9.70;;;2.40;;
83096;SDS011;72968;49.460;11.004;2024-02-21T07:42:45;7.10;;;2.35;;
83096;SDS011;72968;49.460;11.004;2024-02-21T07:45:16;6.30;;;2.10;;
83096;SDS011;72968;49.460;11.004;2024-02-21T07:47:48;5.95;;;1.75;;
83096;SDS011;72968;49.460;11.004;2024-02-21T07:50:19;8.93;;;2.05;;
83096;SDS011;72968;49.460;11.004;2024-02-21T07:52:51;5.55;;;2.28;;
83096;SDS011;72968;49.460;11.004;2024-02-21T07:55:22;5.10;;;1.95;;
83096;SDS011;72968;49.460;11.004;2024-02-21T07:57:55;15.95;;;2.88;;
83096;SDS011;72968;49.460;11.004;2024-02-21T08:00:26;4.15;;;1.83;;
83096;SDS011;72968;49.460;11.004;2024-02-21T08:02:58;4.22;;;1.80;;
83096;SDS011;72968;49.460;11.004;2024-02-21T08:05:29;5.13;;;1.90;;
83096;SDS011;72968;49.460;11.004;2024-02-21T08:08:01;7.03;;;1.98;;
83096;SDS011;72968;49.460;11.004;2024-02-21T08:10:32;7.18;;;2.30;;
83096;SDS011;72968;49.460;11.004;2024-02-21T08:13:05;7.35;;;2.58;;
83096;SDS011;72968;49.460;11.004;2024-02-21T08:15:37;5.85;;;2.05;;
83096;SDS011;72968;49.460;11.004;2024-02-21T08:18:09;5.88;;;1.95;;
83096;SDS011;72968;49.460;11.004;2024-02-21T08:20:42;5.97;;;1.88;;
83096;SDS011;72968;49.460;11.004;2024-02-21T08:23:15;8.05;;;2.00;;
83096;SDS011;72968;49.460;11.004;2024-02-21T08:25:46;6.18;;;2.03;;
83096;SDS011;72968;49.460;11.004;2024-02-21T08:28:19;8.57;;;1.88;;
83096;SDS011;72968;49.460;11.004;2024-02-21T08:30:51;8.35;;;1.70;;
83096;SDS011;72968;49.460;11.004;2024-02-21T08:33:23;4.80;;;1.88;;
83096;SDS011;72968;49.460;11.004;2024-02-21T08:35:55;6.78;;;1.90;;
83096;SDS011;72968;49.460;11.004;2024-02-21T08:38:26;6.63;;;1.80;;
83096;SDS011;72968;49.460;11.004;2024-02-21T08:40:57;5.40;;;1.40;;
83096;SDS011;72968;49.460;11.004;2024-02-21T08:43:31;3.92;;;1.90;;
83096;SDS011;72968;49.460;11.004;2024-02-21T08:46:04;5.05;;;1.77;;
83096;SDS011;72968;49.460;11.004;2024-02-21T08:48:36;5.18;;;1.92;;
83096;SDS011;72968;49.460;11.004;2024-02-21T08:51:07;5.47;;;2.00;;
83096;SDS011;72968;49.460;11.004;2024-02-21T08:53:39;6.60;;;1.92;;
83096;SDS011;72968;49.460;11.004;2024-02-21T08:56:10;7.05;;;2.08;;
83096;SDS011;72968;49.460;11.004;2024-02-21T08:58:43;3.38;;;1.52;;
83096;SDS011;72968;49.460;11.004;2024-02-21T09:01:14;6.00;;;1.85;;
83096;SDS011;72968;49.460;11.004;2024-02-21T09:03:46;4.40;;;1.42;;
83096;SDS011;72968;49.460;11.004;2024-02-21T09:06:17;3.45;;;1.65;;
83096;SDS011;72968;49.460;11.004;2024-02-21T09:08:49;3.22;;;1.48;;
83096;SDS011;72968;49.460;11.004;2024-02-21T09:11:21;12.77;;;1.88;;
83096;SDS011;72968;49.460;11.004;2024-02-21T09:13:53;4.15;;;1.27;;
83096;SDS011;72968;49.460;11.004;2024-02-21T09:16:25;5.03;;;1.45;;
83096;SDS011;72968;49.460;11.004;2024-02-21T09:18:56;4.97;;;1.33;;
83096;SDS011;72968;49.460;11.004;2024-02-21T09:21:28;2.78;;;1.30;;
83096;SDS011;72968;49.460;11.004;2024-02-21T09:23:59;6.60;;;1.65;;
83096;SDS011;72968;49.460;11.004;2024-02-21T09:26:34;4.78;;;1.42;;
83096;SDS011;72968;49.460;11.004;2024-02-21T09:29:06;8.93;;;1.98;;
83096;SDS011;72968;49.460;11.004;2024-02-21T09:31:38;5.95;;;1.85;;
83096;SDS011;72968;49.460;11.004;2024-02-21T09:34:09;4.05;;;1.52;;
83096;SDS011;72968;49.460;11.004;2024-02-21T09:36:41;3.67;;;1.50;;
83096;SDS011;72968;49.460;11.004;2024-02-21T09:39:13;6.60;;;1.85;;
83096;SDS011;72968;49.460;11.004;2024-02-21T09:41:50;4.45;;;1.50;;
83096;SDS011;72968;49.460;11.004;2024-02-21T09:44:24;3.90;;;1.35;;
83096;SDS011;72968;49.460;11.004;2024-02-21T09:46:57;6.80;;;1.83;;
83096;SDS011;72968;49.460;11.004;2024-02-21T09:49:33;6.10;;;1.77;;
83096;SDS011;72968;49.460;11.004;2024-02-21T09:52:08;9.00;;;1.70;;
83096;SDS011;72968;49.460;11.004;2024-02-21T09:54:40;5.55;;;1.52;;
83096;SDS011;72968;49.460;11.004;2024-02-21T09:57:14;7.20;;;1.63;;
83096;SDS011;72968;49.460;11.004;2024-02-21T09:59:47;3.75;;;1.33;;
83096;SDS011;72968;49.460;11.004;2024-02-21T10:02:20;5.72;;;1.45;;
83096;SDS011;72968;49.460;11.004;2024-02-21T10:04:51;4.20;;;1.52;;
83096;SDS011;72968;49.460;11.004;2024-02-21T10:07:23;7.43;;;1.65;;
83096;SDS011;72968;49.460;11.004;2024-02-21T10:10:00;4.78;;;1.63;;
83096;SDS011;72968;49.460;11.004;2024-02-21T10:12:31;3.13;;;1.25;;
83096;SDS011;72968;49.460;11.004;2024-02-21T10:15:07;6.30;;;1.70;;
83096;SDS011;72968;49.460;11.004;2024-02-21T10:17:38;6.07;;;1.92;;
83096;SDS011;72968;49.460;11.004;2024-02-21T10:20:11;3.90;;;1.23;;
83096;SDS011;72968;49.460;11.004;2024-02-21T10:22:43;6.90;;;1.67;;
83096;SDS011;72968;49.460;11.004;2024-02-21T10:25:17;4.85;;;1.10;;
83096;SDS011;72968;49.460;11.004;2024-02-21T10:27:49;5.25;;;1.27;;
83096;SDS011;72968;49.460;11.004;2024-02-21T10:30:22;4.72;;;1.38;;
83096;SDS011;72968;49.460;11.004;2024-02-21T10:32:54;3.85;;;1.38;;
83096;SDS011;72968;49.460;11.004;2024-02-21T10:35:26;6.25;;;1.50;;
83096;SDS011;72968;49.460;11.004;2024-02-21T10:37:58;4.88;;;1.40;;
83096;SDS011;72968;49.460;11.004;2024-02-21T10:40:30;3.67;;;1.30;;
83096;SDS011;72968;49.460;11.004;2024-02-21T10:43:01;5.03;;;1.35;;
83096;SDS011;72968;49.460;11.004;2024-02-21T10:45:35;6.22;;;1.63;;
83096;SDS011;72968;49.460;11.004;2024-02-21T10:48:08;3.63;;;1.33;;
83096;SDS011;72968;49.460;11.004;2024-02-21T10:50:46;6.60;;;1.60;;
83096;SDS011;72968;49.460;11.004;2024-02-21T10:53:23;3.50;;;1.23;;
83096;SDS011;72968;49.460;11.004;2024-02-21T10:56:01;3.85;;;1.33;;
83096;SDS011;72968;49.460;11.004;2024-02-21T10:58:38;3.35;;;1.50;;
83096;SDS011;72968;49.460;11.004;2024-02-21T11:01:11;4.47;;;1.30;;
83096;SDS011;72968;49.460;11.004;2024-02-21T11:03:45;5.68;;;1.50;;
83096;SDS011;72968;49.460;11.004;2024-02-21T11:06:17;5.82;;;2.42;;
83096;SDS011;72968;49.460;11.004;2024-02-21T11:08:59;6.60;;;1.42;;
83096;SDS011;72968;49.460;11.004;2024-02-21T11:11:32;8.00;;;1.83;;
83096;SDS011;72968;49.460;11.004;2024-02-21T11:14:05;5.05;;;1.75;;
83096;SDS011;72968;49.460;11.004;2024-02-21T11:16:38;7.05;;;1.65;;
83096;SDS011;72968;49.460;11.004;2024-02-21T11:19:18;4.07;;;1.70;;
83096;SDS011;72968;49.460;11.004;2024-02-21T11:21:50;4.18;;;1.30;;
83096;SDS011;72968;49.460;11.004;2024-02-21T11:24:25;3.42;;;1.38;;
83096;SDS011;72968;49.460;11.004;2024-02-21T11:27:07;5.75;;;2.00;;
83096;SDS011;72968;49.460;11.004;2024-02-21T11:29:42;5.32;;;1.77;;
83096;SDS011;72968;49.460;11.004;2024-02-21T11:32:15;5.45;;;2.78;;
83096;SDS011;72968;49.460;11.004;2024-02-21T11:34:55;4.63;;;1.60;;
83096;SDS011;72968;49.460;11.004;2024-02-21T11:37:26;4.43;;;1.67;;
83096;SDS011;72968;49.460;11.004;2024-02-21T11:39:59;6.15;;;1.50;;
83096;SDS011;72968;49.460;11.004;2024-02-21T11:42:30;4.38;;;1.27;;
83096;SDS011;72968;49.460;11.004;2024-02-21T11:45:02;6.57;;;2.03;;
83096;SDS011;72968;49.460;11.004;2024-02-21T11:47:35;7.65;;;1.92;;
83096;SDS011;72968;49.460;11.004;2024-02-21T11:50:09;3.95;;;1.75;;
83096;SDS011;72968;49.460;11.004;2024-02-21T11:52:40;2.17;;;1.20;;
83096;SDS011;72968;49.460;11.004;2024-02-21T11:55:13;3.58;;;1.35;;
83096;SDS011;72968;49.460;11.004;2024-02-21T11:57:45;5.50;;;1.85;;
83096;SDS011;72968;49.460;11.004;2024-02-21T12:00:16;4.00;;;1.48;;
83096;SDS011;72968;49.460;11.004;2024-02-21T12:02:56;4.57;;;1.40;;
83096;SDS011;72968;49.460;11.004;2024-02-21T12:05:31;4.95;;;1.85;;
83096;SDS011;72968;49.460;11.004;2024-02-21T12:08:04;5.07;;;1.33;;
83096;SDS011;72968;49.460;11.004;2024-02-21T12:10:38;4.82;;;1.42;;
83096;SDS011;72968;49.460;11.004;2024-02-21T12:13:22;3.28;;;1.13;;
83096;SDS011;72968;49.460;11.004;2024-02-21T12:15:55;5.88;;;1.85;;
83096;SDS011;72968;49.460;11.004;2024-02-21T12:18:29;4.63;;;1.50;;
83096;SDS011;72968;49.460;11.004;2024-02-21T12:21:00;5.70;;;1.42;;
83096;SDS011;72968;49.460;11.004;2024-02-21T12:23:32;7.55;;;1.60;;
83096;SDS011;72968;49.460;11.004;2024-02-21T12:26:03;5.18;;;1.27;;
83096;SDS011;72968;49.460;11.004;2024-02-21T12:28:35;3.67;;;1.20;;
83096;SDS011;72968;49.460;11.004;2024-02-21T12:31:07;5.00;;;1.23;;
83096;SDS011;72968;49.460;11.004;2024-02-21T12:33:40;4.10;;;1.20;;
83096;SDS011;72968;49.460;11.004;2024-02-21T12:36:11;2.92;;;0.95;;
83096;SDS011;72968;49.460;11.004;2024-02-21T12:38:42;3.92;;;1.08;;
83096;SDS011;72968;49.460;11.004;2024-02-21T12:41:14;2.53;;;0.95;;
83096;SDS011;72968;49.460;11.004;2024-02-21T12:43:45;5.03;;;1.00;;
83096;SDS011;72968;49.460;11.004;2024-02-21T12:46:19;3.38;;;1.05;;
83096;SDS011;72968;49.460;11.004;2024-02-21T12:48:52;3.03;;;0.80;;
83096;SDS011;72968;49.460;11.004;2024-02-21T12:51:23;3.33;;;0.88;;
83096;SDS011;72968;49.460;11.004;2024-02-21T12:53:54;3.13;;;0.93;;
83096;SDS011;72968;49.460;11.004;2024-02-21T12:56:26;5.00;;;1.15;;
83096;SDS011;72968;49.460;11.004;2024-02-21T12:58:57;4.05;;;1.00;;
83096;SDS011;72968;49.460;11.004;2024-02-21T13:01:29;3.45;;;1.00;;
83096;SDS011;72968;49.460;11.004;2024-02-21T13:04:01;5.32;;;0.90;;
83096;SDS011;72968;49.460;11.004;2024-02-21T13:06:33;5.22;;;1.10;;
83096;SDS011;72968;49.460;11.004;2024-02-21T13:09:05;2.80;;;1.00;;
83096;SDS011;72968;49.460;11.004;2024-02-21T13:11:41;2.97;;;1.00;;
83096;SDS011;72968;49.460;11.004;2024-02-21T13:14:14;4.53;;;1.40;;
83096;SDS011;72968;49.460;11.004;2024-02-21T13:16:45;3.83;;;1.10;;
83096;SDS011;72968;49.460;11.004;2024-02-21T13:19:19;3.60;;;1.42;;
83096;SDS011;72968;49.460;11.004;2024-02-21T13:21:51;5.60;;;1.60;;
83096;SDS011;72968;49.460;11.004;2024-02-21T13:24:22;5.28;;;1.40;;
83096;SDS011;72968;49.460;11.004;2024-02-21T13:26:53;4.13;;;1.45;;
83096;SDS011;72968;49.460;11.004;2024-02-21T13:29:25;4.35;;;1.00;;
83096;SDS011;72968;49.460;11.004;2024-02-21T13:31:56;4.07;;;1.30;;
83096;SDS011;72968;49.460;11.004;2024-02-21T13:34:30;4.45;;;1.17;;
83096;SDS011;72968;49.460;11.004;2024-02-21T13:37:01;2.75;;;1.08;;
83096;SDS011;72968;49.460;11.004;2024-02-21T13:39:34;2.40;;;1.10;;
83096;SDS011;72968;49.460;11.004;2024-02-21T13:42:06;1.95;;;0.93;;
83096;SDS011;72968;49.460;11.004;2024-02-21T13:44:39;2.95;;;0.95;;
83096;SDS011;72968;49.460;11.004;2024-02-21T13:47:11;3.47;;;0.95;;
83096;SDS011;72968;49.460;11.004;2024-02-21T13:49:47;2.85;;;0.82;;
83096;SDS011;72968;49.460;11.004;2024-02-21T13:52:19;5.38;;;1.27;;
83096;SDS011;72968;49.460;11.004;2024-02-21T13:54:56;2.75;;;1.23;;
83096;SDS011;72968;49.460;11.004;2024-02-21T13:57:28;2.80;;;1.20;;
83096;SDS011;72968;49.460;11.004;2024-02-21T14:00:00;4.53;;;1.00;;
83096;SDS011;72968;49.460;11.004;2024-02-21T14:02:34;2.67;;;0.82;;
83096;SDS011;72968;49.460;11.004;2024-02-21T14:05:10;3.88;;;1.00;;
83096;SDS011;72968;49.460;11.004;2024-02-21T14:07:41;2.78;;;0.98;;
83096;SDS011;72968;49.460;11.004;2024-02-21T14:10:13;3.42;;;1.38;;
83096;SDS011;72968;49.460;11.004;2024-02-21T14:12:44;1.52;;;0.60;;
83096;SDS011;72968;49.460;11.004;2024-02-21T14:15:16;3.10;;;1.00;;
83096;SDS011;72968;49.460;11.004;2024-02-21T14:17:47;3.13;;;0.82;;
83096;SDS011;72968;49.460;11.004;2024-02-21T14:20:20;3.35;;;1.10;;
83096;SDS011;72968;49.460;11.004;2024-02-21T14:22:51;3.00;;;1.10;;
83096;SDS011;72968;49.460;11.004;2024-02-21T14:25:23;6.97;;;1.23;;
83096;SDS011;72968;49.460;11.004;2024-02-21T14:27:54;3.97;;;1.40;;
83096;SDS011;72968;49.460;11.004;2024-02-21T14:30:26;3.85;;;1.15;;
83096;SDS011;72968;49.460;11.004;2024-02-21T14:32:59;4.20;;;1.05;;
83096;SDS011;72968;49.460;11.004;2024-02-21T14:35:32;2.10;;;0.80;;
83096;SDS011;72968;49.460;11.004;2024-02-21T14:38:05;2.25;;;0.73;;
83096;SDS011;72968;49.460;11.004;2024-02-21T14:40:36;3.47;;;0.60;;
83096;SDS011;72968;49.460;11.004;2024-02-21T14:43:10;5.95;;;1.05;;
83096;SDS011;72968;49.460;11.004;2024-02-21T14:45:41;2.42;;;1.08;;
83096;SDS011;72968;49.460;11.004;2024-02-21T14:48:13;3.60;;;1.02;;
83096;SDS011;72968;49.460;11.004;2024-02-21T14:50:47;1.88;;;0.82;;
83096;SDS011;72968;49.460;11.004;2024-02-21T14:53:19;4.15;;;1.25;;
83096;SDS011;72968;49.460;11.004;2024-02-21T14:55:51;3.55;;;1.00;;
83096;SDS011;72968;49.460;11.004;2024-02-21T14:58:22;4.13;;;3.00;;
83096;SDS011;72968;49.460;11.004;2024-02-21T15:00:54;10.48;;;9.43;;
83096;SDS011;72968;49.460;11.004;2024-02-21T15:03:25;2.40;;;1.20;;